createdAt,value
2019-02-26T00:01:26.242Z,103116.38
2019-02-26T00:03:56.999Z,103114.58
2019-02-26T00:06:28.468Z,103107.00
2019-02-26T00:08:59.386Z,103110.14
2019-02-26T00:11:33.316Z,103112.48
2019-02-26T00:14:02.544Z,103128.55
2019-02-26T00:16:37.597Z,103127.33
2019-02-26T00:19:07.310Z,103120.69
2019-02-26T00:21:36.408Z,103125.23
2019-02-26T00:24:07.331Z,103127.58
2019-02-26T00:26:40.342Z,103110.27
2019-02-26T00:29:09.425Z,103114.20
2019-02-26T00:31:39.083Z,103111.05
2019-02-26T00:34:10.674Z,103126.60
2019-02-26T00:36:39.489Z,103129.27
2019-02-26T00:39:10.552Z,103132.48
2019-02-26T00:41:40.473Z,103124.14
2019-02-26T00:44:11.187Z,103129.66
2019-02-26T00:46:40.552Z,103131.09
2019-02-26T00:49:10.153Z,103130.25
2019-02-26T00:51:41.740Z,103129.41
2019-02-26T00:54:10.554Z,103130.84
2019-02-26T00:56:41.096Z,103135.84
2019-02-26T00:59:10.540Z,103125.32
2019-02-26T01:01:44.059Z,103123.70
2019-02-26T01:04:11.259Z,103123.27
2019-02-26T01:06:40.976Z,103110.43
2019-02-26T01:09:12.077Z,103104.66
2019-02-26T01:11:43.011Z,103099.42
2019-02-26T01:14:13.676Z,103088.88
2019-02-26T01:16:46.103Z,103096.03
2019-02-26T01:19:17.519Z,103092.95
2019-02-26T01:21:46.974Z,103096.95
2019-02-26T01:24:16.474Z,103096.95
2019-02-26T01:26:45.832Z,103098.25
2019-02-26T01:29:18.613Z,103101.39
2019-02-26T01:31:46.610Z,103095.62
2019-02-26T01:34:18.072Z,103086.73
2019-02-26T01:36:49.604Z,103089.83
2019-02-26T01:39:21.130Z,103080.56
2019-02-26T01:41:53.405Z,103075.26
2019-02-26T01:44:21.686Z,103074.36
2019-02-26T01:46:53.311Z,103078.38
2019-02-26T01:49:23.737Z,103074.41
2019-02-26T01:51:54.021Z,103063.32
2019-02-26T01:54:23.819Z,103065.52
2019-02-26T01:56:53.535Z,103059.36
2019-02-26T01:59:22.903Z,103059.36
2019-02-26T02:01:53.755Z,103057.18
2019-02-26T02:04:23.870Z,103066.53
2019-02-26T02:06:54.879Z,103067.92
2019-02-26T02:09:27.850Z,103067.95
2019-02-26T02:11:59.534Z,103065.30
2019-02-26T02:14:28.895Z,103071.96
2019-02-26T02:16:58.511Z,103062.64
2019-02-26T02:19:30.193Z,103063.54
2019-02-26T02:21:58.922Z,103067.07
2019-02-26T02:24:28.835Z,103068.84
2019-02-26T02:27:00.272Z,103066.20
2019-02-26T02:29:31.938Z,103059.08
2019-02-26T02:32:02.836Z,103074.63
2019-02-26T02:34:36.587Z,103067.08
2019-02-26T02:37:05.264Z,103058.16
2019-02-26T02:39:34.920Z,103060.83
2019-02-26T02:42:04.265Z,103058.16
2019-02-26T02:44:34.076Z,103050.66
2019-02-26T02:47:05.751Z,103052.48
2019-02-26T02:49:38.918Z,103060.03
2019-02-26T02:52:07.231Z,103057.42
2019-02-26T02:54:38.566Z,103057.45
2019-02-26T02:57:09.966Z,103061.50
2019-02-26T02:59:42.304Z,103052.63
2019-02-26T03:02:12.666Z,103055.29
2019-02-26T03:04:42.105Z,103061.52
2019-02-26T03:07:11.642Z,103061.98
2019-02-26T03:09:43.297Z,103047.80
2019-02-26T03:12:12.633Z,103047.33
2019-02-26T03:14:44.516Z,103059.77
2019-02-26T03:17:14.758Z,103066.92
2019-02-26T03:19:44.720Z,103061.64
2019-02-26T03:22:17.398Z,103059.91
2019-02-26T03:24:45.438Z,103060.79
2019-02-26T03:27:14.840Z,103055.08
2019-02-26T03:29:45.057Z,103062.19
2019-02-26T03:32:15.809Z,103063.98
2019-02-26T03:34:46.224Z,103063.98
2019-02-26T03:37:16.024Z,103067.13
2019-02-26T03:39:45.418Z,103064.06
2019-02-26T03:42:16.679Z,103061.02
2019-02-26T03:44:47.036Z,103076.16
2019-02-26T03:47:18.813Z,103073.12
2019-02-26T03:49:48.145Z,103078.93
2019-02-26T03:52:17.787Z,103080.31
2019-02-26T03:54:48.590Z,103081.22
2019-02-26T03:57:20.096Z,103083.02
2019-02-26T03:59:49.287Z,103080.44
2019-02-26T04:02:20.857Z,103083.58
2019-02-26T04:04:53.894Z,103083.17
2019-02-26T04:07:22.847Z,103074.32
2019-02-26T04:09:53.110Z,103071.70
2019-02-26T04:12:23.330Z,103083.22
2019-02-26T04:14:52.983Z,103079.70
2019-02-26T04:17:25.739Z,103081.94
2019-02-26T04:19:54.405Z,103086.81
2019-02-26T04:22:28.075Z,103089.50
2019-02-26T04:25:06.379Z,103093.09
2019-02-26T04:27:56.358Z,103091.75
2019-02-26T04:30:56.359Z,103083.79
2019-02-26T04:33:30.320Z,103072.27
2019-02-26T04:36:20.449Z,103070.95
2019-02-26T04:39:16.913Z,103056.83
2019-02-26T04:42:09.459Z,103056.83
2019-02-26T04:45:09.066Z,103050.19
2019-02-26T04:47:49.498Z,103048.48
2019-02-26T04:50:18.181Z,103053.37
2019-02-26T04:52:47.547Z,103040.13
2019-02-26T04:55:17.151Z,103047.19
2019-02-26T04:57:49.062Z,103042.36
2019-02-26T05:00:18.213Z,103041.94
2019-02-26T05:02:47.581Z,103031.76
2019-02-26T05:05:17.148Z,103030.03
2019-02-26T05:07:47.992Z,103035.77
2019-02-26T05:10:17.622Z,103039.31
2019-02-26T05:12:47.263Z,103035.36
2019-02-26T05:15:18.076Z,103041.13
2019-02-26T05:17:47.927Z,103044.66
2019-02-26T05:20:18.955Z,103040.23
2019-02-26T05:22:48.718Z,103035.81
2019-02-26T05:25:19.805Z,103045.56
2019-02-26T05:27:50.893Z,103035.38
2019-02-26T05:30:22.880Z,103034.06
2019-02-26T05:32:56.590Z,103036.73
2019-02-26T05:35:25.283Z,103031.42
2019-02-26T05:37:56.190Z,103035.83
2019-02-26T05:40:27.360Z,103037.17
2019-02-26T05:42:59.318Z,103047.34
2019-02-26T05:45:29.863Z,103044.24
2019-02-26T05:48:01.212Z,103048.20
2019-02-26T05:50:34.667Z,103056.16
2019-02-26T05:53:04.917Z,103062.81
2019-02-26T05:55:34.853Z,103071.22
2019-02-26T05:58:04.489Z,103066.34
2019-02-26T06:00:34.813Z,103070.76
2019-02-26T06:03:07.192Z,103075.20
2019-02-26T06:05:35.896Z,103071.66
2019-02-26T06:08:05.618Z,103079.16
2019-02-26T06:10:35.042Z,103075.62
2019-02-26T06:13:05.376Z,103077.83
2019-02-26T06:15:35.800Z,103068.98
2019-02-26T06:18:06.470Z,103072.09
2019-02-26T06:20:36.645Z,103065.89
2019-02-26T06:23:06.465Z,103065.47
2019-02-26T06:25:36.126Z,103058.80
2019-02-26T06:28:07.697Z,103061.48
2019-02-26T06:30:36.898Z,103065.47
2019-02-26T06:33:09.120Z,103064.58
2019-02-26T06:35:38.435Z,103064.59
2019-02-26T06:38:09.806Z,103066.38
2019-02-26T06:40:42.314Z,103064.56
2019-02-26T06:43:11.502Z,103069.88
2019-02-26T06:45:43.062Z,103070.74
2019-02-26T06:48:14.654Z,103072.09
2019-02-26T06:50:43.485Z,103069.39
2019-02-26T06:53:14.350Z,103073.84
2019-02-26T06:55:44.876Z,103072.00
2019-02-26T06:58:22.122Z,103070.20
2019-02-26T07:00:55.378Z,103072.72
2019-02-26T07:03:25.070Z,103076.55
2019-02-26T07:05:54.884Z,103077.21
2019-02-26T07:08:26.769Z,103081.39
2019-02-26T07:10:55.715Z,103083.38
2019-02-26T07:13:30.575Z,103086.67
2019-02-26T07:16:06.026Z,103090.38
2019-02-26T07:18:35.676Z,103082.09
2019-02-26T07:21:05.039Z,103083.13
2019-02-26T07:23:37.627Z,103091.23
2019-02-26T07:26:06.668Z,103092.23
2019-02-26T07:28:39.703Z,103080.86
2019-02-26T07:31:10.299Z,103087.86
2019-02-26T07:33:40.041Z,103083.63
2019-02-26T07:36:09.722Z,103085.59
2019-02-26T07:38:41.507Z,103090.22
2019-02-26T07:41:10.147Z,103090.00
2019-02-26T07:43:41.797Z,103086.55
2019-02-26T07:46:12.695Z,103088.02
2019-02-26T07:48:42.082Z,103087.27
2019-02-26T07:51:12.442Z,103082.02
2019-02-26T07:53:48.518Z,103075.98
2019-02-26T07:56:13.824Z,103080.61
2019-02-26T07:58:43.257Z,103080.20
2019-02-26T08:01:12.911Z,103070.37
2019-02-26T08:03:44.036Z,103070.37
2019-02-26T08:06:14.016Z,103070.03
2019-02-26T08:08:44.910Z,103068.39
2019-02-26T08:11:14.990Z,103058.96
2019-02-26T08:13:44.379Z,103056.59
2019-02-26T08:16:13.904Z,103059.06
2019-02-26T08:18:43.280Z,103059.06
2019-02-26T08:21:12.927Z,103045.41
2019-02-26T08:23:43.668Z,103045.41
2019-02-26T08:26:15.005Z,103059.17
2019-02-26T08:28:45.815Z,103056.34
2019-02-26T08:31:20.673Z,103062.54
2019-02-26T08:33:51.795Z,103056.97
2019-02-26T08:36:21.274Z,103061.69
2019-02-26T08:38:52.047Z,103062.81
2019-02-26T08:41:22.166Z,103059.42
2019-02-26T08:43:54.000Z,103055.62
2019-02-26T08:46:23.178Z,103048.52
2019-02-26T08:48:52.623Z,103064.84
2019-02-26T08:51:22.070Z,103066.03
2019-02-26T08:53:51.903Z,103069.42
2019-02-26T08:56:26.217Z,103057.67
2019-02-26T08:58:55.384Z,103056.59
2019-02-26T09:01:25.159Z,103047.14
2019-02-26T09:03:55.846Z,103043.98
2019-02-26T09:06:25.958Z,103047.98
2019-02-26T09:08:57.347Z,103056.66
2019-02-26T09:11:28.636Z,103062.80
2019-02-26T09:13:59.591Z,103069.56
2019-02-26T09:16:30.346Z,103064.13
2019-02-26T09:18:59.544Z,103059.12
2019-02-26T09:21:30.438Z,103057.64
2019-02-26T09:24:04.227Z,103062.27
2019-02-26T09:26:31.208Z,103057.49
2019-02-26T09:29:00.577Z,103063.50
2019-02-26T09:31:31.220Z,103056.12
2019-02-26T09:34:00.826Z,103056.12
2019-02-26T09:36:30.186Z,103056.13
2019-02-26T09:38:59.553Z,103062.14
2019-02-26T09:41:29.216Z,103059.87
2019-02-26T09:43:59.381Z,103061.31
2019-02-26T09:46:31.771Z,103061.72
2019-02-26T09:49:03.148Z,103058.90
2019-02-26T09:51:33.534Z,103052.31
2019-02-26T09:54:03.684Z,103054.58
2019-02-26T09:56:33.241Z,103055.83
2019-02-26T09:59:04.737Z,103044.70
2019-02-26T10:01:37.699Z,103053.59
2019-02-26T10:04:06.575Z,103052.11
2019-02-26T10:06:37.906Z,103056.34
2019-02-26T10:09:10.876Z,103053.97
2019-02-26T10:11:41.929Z,103042.70
2019-02-26T10:14:12.765Z,103039.45
2019-02-26T10:16:44.566Z,103030.08
2019-02-26T10:19:14.953Z,103030.08
2019-02-26T10:21:45.255Z,103029.07
2019-02-26T10:24:14.700Z,103034.90
2019-02-26T10:26:44.340Z,103038.80
2019-02-26T10:29:13.962Z,103037.56
2019-02-26T10:31:43.831Z,103038.08
2019-02-26T10:34:15.681Z,103044.59
2019-02-26T10:36:47.278Z,103039.38
2019-02-26T10:39:20.087Z,103036.83
2019-02-26T10:41:47.617Z,103040.55
2019-02-26T10:44:17.282Z,103040.55
2019-02-26T10:46:47.171Z,103040.75
2019-02-26T10:49:16.856Z,103040.31
2019-02-26T10:51:46.555Z,103034.72
2019-02-26T10:54:17.945Z,103045.05
2019-02-26T10:56:46.933Z,103038.48
2019-02-26T10:59:19.567Z,103037.59
2019-02-26T11:01:51.679Z,103037.30
2019-02-26T11:04:19.114Z,103039.02
2019-02-26T11:06:50.691Z,103032.44
2019-02-26T11:09:25.310Z,103028.84
2019-02-26T11:11:51.748Z,103028.88
2019-02-26T11:14:21.738Z,103028.88
2019-02-26T11:16:51.093Z,103024.92
2019-02-26T11:19:20.651Z,103024.86
2019-02-26T11:21:51.951Z,103031.43
2019-02-26T11:24:23.323Z,103036.41
2019-02-26T11:26:52.104Z,103025.14
2019-02-26T11:29:21.525Z,103027.03
2019-02-26T11:31:51.192Z,103022.41
2019-02-26T11:34:20.988Z,103020.28
2019-02-26T11:36:54.179Z,103023.45
2019-02-26T11:39:23.900Z,103019.08
2019-02-26T11:41:56.249Z,103023.13
2019-02-26T11:44:25.904Z,103022.91
2019-02-26T11:46:56.618Z,103019.52
2019-02-26T11:49:26.020Z,103014.70
2019-02-26T11:51:56.343Z,103012.20
2019-02-26T11:54:25.717Z,103015.26
2019-02-26T11:56:55.068Z,103010.37
2019-02-26T11:59:24.669Z,103010.88
2019-02-26T12:01:56.022Z,103005.39
2019-02-26T12:04:25.149Z,102994.53
2019-02-26T12:06:55.894Z,102998.84
2019-02-26T12:09:25.936Z,102995.54
2019-02-26T12:11:56.063Z,102992.56
2019-02-26T12:14:27.747Z,102994.82
2019-02-26T12:16:57.494Z,102993.84
2019-02-26T12:19:28.418Z,102989.90
2019-02-26T12:22:00.798Z,102985.20
2019-02-26T12:24:31.271Z,102975.63
2019-02-26T12:27:00.371Z,102967.80
2019-02-26T12:29:29.864Z,102965.16
2019-02-26T12:32:01.181Z,102967.94
2019-02-26T12:34:30.278Z,102967.92
2019-02-26T12:37:02.813Z,102958.98
2019-02-26T12:39:33.517Z,102956.95
2019-02-26T12:42:02.866Z,102963.09
2019-02-26T12:44:34.787Z,102953.25
2019-02-26T12:47:03.525Z,102952.41
2019-02-26T12:49:35.628Z,102952.16
2019-02-26T12:52:04.218Z,102949.60
2019-02-26T12:54:37.276Z,102953.48
2019-02-26T12:57:04.625Z,102961.60
2019-02-26T12:59:34.165Z,102955.23
2019-02-26T13:02:05.565Z,102961.64
2019-02-26T13:04:37.378Z,102964.12
2019-02-26T13:07:08.648Z,102952.47
2019-02-26T13:09:41.114Z,102952.70
2019-02-26T13:12:07.817Z,102945.23
2019-02-26T13:14:37.446Z,102939.59
2019-02-26T13:17:07.151Z,102939.48
2019-02-26T13:19:37.293Z,102927.60
2019-02-26T13:22:11.959Z,102927.60
2019-02-26T13:24:38.198Z,102919.98
2019-02-26T13:27:07.559Z,102925.19
2019-02-26T13:29:42.394Z,102932.78
2019-02-26T13:32:13.117Z,102925.36
2019-02-26T13:34:39.939Z,102926.05
2019-02-26T13:37:09.341Z,102916.49
2019-02-26T13:39:41.432Z,102915.47
2019-02-26T13:42:13.246Z,102910.98
2019-02-26T13:44:40.804Z,102909.12
2019-02-26T13:47:10.556Z,102911.02
2019-02-26T13:49:40.585Z,102901.84
2019-02-26T13:52:09.947Z,102899.24
2019-02-26T13:54:39.613Z,102893.69
2019-02-26T13:57:09.341Z,102892.98
2019-02-26T13:59:38.691Z,102888.84
2019-02-26T14:02:13.893Z,102889.64
2019-02-26T14:04:43.707Z,102894.32
2019-02-26T14:07:13.324Z,102895.34
2019-02-26T14:09:42.788Z,102885.81
2019-02-26T14:12:12.156Z,102885.81
2019-02-26T14:14:41.728Z,102887.23
2019-02-26T14:17:11.111Z,102882.88
2019-02-26T14:19:40.807Z,102885.42
2019-02-26T14:22:10.162Z,102881.74
2019-02-26T14:24:39.851Z,102878.83
2019-02-26T14:27:09.850Z,102880.21
2019-02-26T14:29:39.554Z,102878.16
2019-02-26T14:32:09.169Z,102875.53
2019-02-26T14:34:40.242Z,102882.27
2019-02-26T14:37:10.938Z,102876.27
2019-02-26T14:39:40.603Z,102869.39
2019-02-26T14:42:09.969Z,102868.69
2019-02-26T14:44:39.660Z,102857.37
2019-02-26T14:47:09.023Z,102849.65
2019-02-26T14:49:38.679Z,102851.31
2019-02-26T14:52:08.554Z,102855.70
2019-02-26T14:54:37.889Z,102849.73
2019-02-26T14:57:07.551Z,102847.64
2019-02-26T14:59:37.203Z,102847.03
2019-02-26T15:02:07.123Z,102847.69
2019-02-26T15:04:37.101Z,102842.06
2019-02-26T15:07:06.669Z,102834.13
2019-02-26T15:09:37.036Z,102832.69
2019-02-26T15:12:08.074Z,102835.19
2019-02-26T15:14:37.509Z,102835.34
2019-02-26T15:17:06.850Z,102838.45
2019-02-26T15:19:49.214Z,102827.89
2019-02-26T15:22:08.312Z,102827.65
2019-02-26T15:24:37.974Z,102815.88
2019-02-26T15:27:07.325Z,102817.98
2019-02-26T15:29:37.145Z,102816.88
2019-02-26T15:32:07.137Z,102813.47
2019-02-26T15:34:37.193Z,102814.08
2019-02-26T15:37:06.801Z,102816.81
2019-02-26T15:39:37.155Z,102808.12
2019-02-26T15:42:06.836Z,102813.35
2019-02-26T15:44:37.426Z,102808.89
2019-02-26T15:47:07.054Z,102806.51
2019-02-26T15:49:37.768Z,102803.73
2019-02-26T15:52:07.796Z,102803.64
2019-02-26T15:54:37.587Z,102794.38
2019-02-26T15:57:07.964Z,102799.64
2019-02-26T15:59:37.413Z,102801.98
2019-02-26T16:02:06.817Z,102804.25
2019-02-26T16:04:37.516Z,102804.25
2019-02-26T16:07:06.898Z,102805.83
2019-02-26T16:09:37.420Z,102810.97
2019-02-26T16:12:07.240Z,102814.60
2019-02-26T16:14:37.507Z,102817.71
2019-02-26T16:17:07.075Z,102819.84
2019-02-26T16:19:37.254Z,102819.06
2019-02-26T16:22:06.864Z,102810.00
2019-02-26T16:24:37.527Z,102804.25
2019-02-26T16:27:07.336Z,102806.61
2019-02-26T16:29:37.977Z,102805.41
2019-02-26T16:32:07.368Z,102806.52
2019-02-26T16:34:38.322Z,102805.73
2019-02-26T17:25:10.647Z,102809.41
2019-02-26T17:27:40.314Z,102817.20
2019-02-26T17:30:12.450Z,102815.36
2019-02-26T17:32:42.094Z,102813.14
2019-02-26T17:35:12.595Z,102813.86
2019-02-26T17:37:42.306Z,102811.43
2019-02-26T17:40:20.285Z,102814.47
2019-02-26T17:42:51.339Z,102815.44
2019-02-26T17:45:26.331Z,102807.47
2019-02-26T17:47:57.408Z,102811.48
2019-02-26T17:50:33.581Z,102815.02
2019-02-26T17:53:03.518Z,102822.16
2019-02-26T17:55:33.163Z,102817.37
2019-02-26T17:58:02.785Z,102810.70
2019-02-26T18:00:33.940Z,102811.91
2019-02-26T18:03:06.391Z,102810.28
2019-02-26T18:05:34.375Z,102813.30
2019-02-26T18:08:04.064Z,102818.94
2019-02-26T18:10:33.411Z,102819.52
2019-02-26T18:13:03.462Z,102818.45
2019-02-26T18:15:32.809Z,102815.92
2019-02-26T18:18:02.322Z,102813.70
2019-02-26T18:20:31.666Z,102819.80
2019-02-26T18:23:01.475Z,102812.98
2019-02-26T18:25:32.100Z,102815.64
2019-02-26T18:28:01.711Z,102816.30
2019-02-26T18:30:32.560Z,102816.30
2019-02-26T18:33:02.223Z,102818.57
2019-02-26T18:35:31.643Z,102816.00
2019-02-26T18:38:01.300Z,102821.78
2019-02-26T18:40:30.643Z,102820.00
2019-02-26T18:43:00.171Z,102818.48
2019-02-26T18:45:30.834Z,102814.23
2019-02-26T18:48:00.298Z,102812.83
2019-02-26T18:50:30.152Z,102804.52
2019-02-26T18:52:59.508Z,102806.67
2019-02-26T18:55:32.312Z,102815.53
2019-02-26T18:58:00.674Z,102817.38
2019-02-26T19:00:33.024Z,102817.80
2019-02-26T19:03:02.412Z,102813.86
2019-02-26T19:05:32.183Z,102813.56
2019-02-26T19:08:05.536Z,102811.64
2019-02-26T19:10:33.285Z,102814.03
2019-02-26T19:13:03.342Z,102821.94
2019-02-26T19:15:34.243Z,102810.73
2019-02-26T19:18:03.700Z,102813.55
2019-02-26T19:20:38.198Z,102810.72
2019-02-26T19:23:07.661Z,102811.00
2019-02-26T19:25:41.413Z,102811.31
2019-02-26T19:28:09.895Z,102814.73
2019-02-26T19:30:39.688Z,102819.86
2019-02-26T19:33:09.404Z,102810.14
2019-02-26T19:35:40.497Z,102810.14
2019-02-26T19:38:10.630Z,102815.13
2019-02-26T19:40:58.383Z,102811.08
2019-02-26T19:43:28.896Z,102807.73
2019-02-26T19:45:58.531Z,102804.52
2019-02-26T19:48:30.487Z,102804.52
2019-02-26T19:50:58.952Z,102811.69
2019-02-26T19:53:28.417Z,102816.13
2019-02-26T19:55:58.010Z,102816.71
2019-02-26T19:58:27.536Z,102798.78
2019-02-26T20:00:56.876Z,102798.78
2019-02-26T20:03:26.494Z,102805.70
2019-02-26T20:05:55.844Z,102814.10
2019-02-26T20:08:25.525Z,102812.16
2019-02-26T20:10:54.869Z,102804.06
2019-02-26T20:13:25.650Z,102809.09
2019-02-26T20:15:55.422Z,102811.12
2019-02-26T20:18:26.170Z,102808.88
2019-02-26T20:20:56.008Z,102807.97
2019-02-26T20:23:25.562Z,102807.52
2019-02-26T20:25:55.264Z,102809.85
2019-02-26T20:28:24.684Z,102810.31
2019-02-26T20:30:54.330Z,102804.91
2019-02-26T20:33:23.689Z,102806.26
2019-02-26T20:35:53.032Z,102801.23
2019-02-26T20:38:22.938Z,102808.12
2019-02-26T20:40:52.970Z,102801.27
2019-02-26T20:43:22.982Z,102803.91
2019-02-26T20:45:52.633Z,102802.76
2019-02-26T20:48:22.034Z,102801.58
2019-02-26T20:50:53.749Z,102798.03
2019-02-26T20:53:22.818Z,102797.52
2019-02-26T20:55:52.930Z,102794.25
2019-02-26T20:58:23.281Z,102796.97
2019-02-26T21:00:58.818Z,102790.33
2019-02-26T21:03:29.405Z,102790.42
2019-02-26T21:05:59.055Z,102796.95
2019-02-26T21:08:30.938Z,102794.44
2019-02-26T21:10:59.851Z,102793.22
2019-02-26T21:13:29.210Z,102789.64
2019-02-26T21:15:58.814Z,102781.30
2019-02-26T21:18:30.255Z,102785.20
2019-02-26T21:20:59.219Z,102785.27
2019-02-26T21:23:28.757Z,102789.36
2019-02-26T21:25:58.095Z,102786.90
2019-02-26T21:28:27.756Z,102790.52
2019-02-26T21:30:57.102Z,102783.06
2019-02-26T21:33:30.588Z,102784.30
2019-02-26T21:35:57.914Z,102776.55
2019-02-26T21:38:27.279Z,102778.20
2019-02-26T21:40:56.850Z,102772.70
2019-02-26T21:43:26.241Z,102773.94
2019-02-26T21:45:56.133Z,102772.54
2019-02-26T21:48:25.473Z,102768.33
2019-02-26T21:50:55.419Z,102762.25
2019-02-26T21:53:25.012Z,102767.13
2019-02-26T21:55:55.664Z,102765.02
2019-02-26T21:58:26.931Z,102766.08
2019-02-26T22:00:56.151Z,102764.08
2019-02-26T22:03:26.567Z,102765.00
2019-02-26T22:06:05.080Z,102766.56
2019-02-26T22:08:28.094Z,102754.23
2019-02-26T22:10:57.458Z,102751.25
2019-02-26T22:13:29.051Z,102752.58
2019-02-26T22:15:58.041Z,102752.58
2019-02-26T22:18:31.169Z,102752.01
2019-02-26T22:20:58.457Z,102756.27
2019-02-26T22:23:29.384Z,102757.19
2019-02-26T22:25:59.110Z,102761.67
2019-02-26T22:28:28.449Z,102767.05
2019-02-26T22:30:58.088Z,102759.02
2019-02-26T22:33:27.713Z,102757.88
2019-02-26T22:35:59.846Z,102755.32
2019-02-26T22:38:28.481Z,102754.41
2019-02-26T22:40:59.948Z,102748.70
2019-02-26T22:43:29.185Z,102752.83
2019-02-26T22:46:01.035Z,102753.33
2019-02-26T22:48:30.128Z,102750.34
2019-02-26T22:51:00.237Z,102755.70
2019-02-26T22:53:30.588Z,102748.70
2019-02-26T22:56:00.206Z,102740.80
2019-02-26T22:58:29.542Z,102740.44
2019-02-26T23:01:18.660Z,102748.53
2019-02-26T23:03:49.619Z,102740.09
2019-02-26T23:06:20.353Z,102740.56
2019-02-26T23:08:49.760Z,102738.02
2019-02-26T23:11:19.458Z,102732.73
2019-02-26T23:13:48.959Z,102734.56
2019-02-26T23:16:19.153Z,102734.63
2019-02-26T23:18:48.661Z,102737.47
2019-02-26T23:21:18.331Z,102740.70
2019-02-26T23:23:48.331Z,102732.27
2019-02-26T23:26:17.690Z,102729.20
2019-02-26T23:28:47.326Z,102734.14
2019-02-26T23:31:17.184Z,102732.91
2019-02-26T23:33:48.407Z,102725.50
2019-02-26T23:36:17.653Z,102720.27
2019-02-26T23:38:47.458Z,102724.09
2019-02-26T23:41:16.890Z,102729.28
2019-02-26T23:43:46.610Z,102727.66
2019-02-26T23:46:15.959Z,102731.81
2019-02-26T23:48:45.597Z,102727.91
2019-02-26T23:51:15.203Z,102732.05
2019-02-26T23:53:44.546Z,102730.92
2019-02-26T23:56:16.770Z,102729.86
2019-02-26T23:58:46.025Z,102729.60
